sensor_id;sensor_type;location;lat;lon;timestamp;P1;durP1;ratioP1;P2;durP2;ratioP2
76136;SDS011;68622;53.128;17.966;2024-03-23T00:53:40;13.90;;;3.00;;
76136;SDS011;68622;53.128;17.966;2024-03-23T00:56:06;14.40;;;3.90;;
76136;SDS011;68622;53.128;17.966;2024-03-23T00:58:33;13.10;;;2.70;;
76136;SDS011;68622;53.128;17.966;2024-03-23T01:00:59;12.50;;;3.20;;
76136;SDS011;68622;53.128;17.966;2024-03-23T01:03:26;14.20;;;3.00;;
76136;SDS011;68622;53.128;17.966;2024-03-23T01:05:52;12.50;;;3.60;;
76136;SDS011;68622;53.128;17.966;2024-03-23T01:08:20;19.10;;;3.60;;
76136;SDS011;68622;53.128;17.966;2024-03-23T01:10:56;16.00;;;3.50;;
76136;SDS011;68622;53.128;17.966;2024-03-23T01:13:24;15.80;;;3.30;;
76136;SDS011;68622;53.128;17.966;2024-03-23T01:15:51;17.00;;;3.80;;
76136;SDS011;68622;53.128;17.966;2024-03-23T01:18:19;16.50;;;3.60;;
76136;SDS011;68622;53.128;17.966;2024-03-23T01:20:46;15.50;;;3.80;;
76136;SDS011;68622;53.128;17.966;2024-03-23T01:23:13;18.20;;;4.00;;
76136;SDS011;68622;53.128;17.966;2024-03-23T01:25:40;16.70;;;3.80;;
76136;SDS011;68622;53.128;17.966;2024-03-23T01:28:07;14.10;;;3.10;;
76136;SDS011;68622;53.128;17.966;2024-03-23T01:30:34;14.30;;;3.00;;
76136;SDS011;68622;53.128;17.966;2024-03-23T01:33:01;13.70;;;3.50;;
76136;SDS011;68622;53.128;17.966;2024-03-23T01:35:31;16.60;;;4.00;;
76136;SDS011;68622;53.128;17.966;2024-03-23T01:37:58;15.40;;;3.40;;
76136;SDS011;68622;53.128;17.966;2024-03-23T01:40:24;14.70;;;3.40;;
76136;SDS011;68622;53.128;17.966;2024-03-23T01:42:57;15.30;;;4.20;;
76136;SDS011;68622;53.128;17.966;2024-03-23T01:45:24;19.00;;;5.30;;
76136;SDS011;68622;53.128;17.966;2024-03-23T01:47:51;16.20;;;4.30;;
76136;SDS011;68622;53.128;17.966;2024-03-23T01:50:19;18.20;;;5.30;;
76136;SDS011;68622;53.128;17.966;2024-03-23T01:52:47;14.40;;;4.40;;
76136;SDS011;68622;53.128;17.966;2024-03-23T01:55:14;13.20;;;4.70;;
76136;SDS011;68622;53.128;17.966;2024-03-23T01:57:41;19.20;;;6.80;;
76136;SDS011;68622;53.128;17.966;2024-03-23T02:00:08;19.30;;;6.30;;
76136;SDS011;68622;53.128;17.966;2024-03-23T02:02:45;14.40;;;5.70;;
76136;SDS011;68622;53.128;17.966;2024-03-23T02:05:12;18.80;;;6.90;;
76136;SDS011;68622;53.128;17.966;2024-03-23T02:07:39;17.60;;;6.70;;
76136;SDS011;68622;53.128;17.966;2024-03-23T02:10:07;23.10;;;7.70;;
76136;SDS011;68622;53.128;17.966;2024-03-23T02:12:36;19.00;;;7.40;;
76136;SDS011;68622;53.128;17.966;2024-03-23T02:15:03;22.50;;;6.60;;
76136;SDS011;68622;53.128;17.966;2024-03-23T02:17:30;22.40;;;7.30;;
76136;SDS011;68622;53.128;17.966;2024-03-23T02:19:59;17.40;;;5.50;;
76136;SDS011;68622;53.128;17.966;2024-03-23T02:22:39;16.40;;;4.00;;
76136;SDS011;68622;53.128;17.966;2024-03-23T02:25:06;17.00;;;4.60;;
76136;SDS011;68622;53.128;17.966;2024-03-23T02:27:33;17.00;;;4.00;;
76136;SDS011;68622;53.128;17.966;2024-03-23T02:30:02;14.90;;;3.80;;
76136;SDS011;68622;53.128;17.966;2024-03-23T02:32:28;13.30;;;3.10;;
76136;SDS011;68622;53.128;17.966;2024-03-23T02:34:55;17.60;;;3.90;;
76136;SDS011;68622;53.128;17.966;2024-03-23T02:37:21;15.30;;;4.30;;
76136;SDS011;68622;53.128;17.966;2024-03-23T02:39:48;15.30;;;3.00;;
76136;SDS011;68622;53.128;17.966;2024-03-23T02:42:14;18.20;;;4.00;;
76136;SDS011;68622;53.128;17.966;2024-03-23T02:44:43;21.00;;;4.60;;
76136;SDS011;68622;53.128;17.966;2024-03-23T02:47:11;14.70;;;3.60;;
76136;SDS011;68622;53.128;17.966;2024-03-23T02:49:37;18.40;;;3.80;;
76136;SDS011;68622;53.128;17.966;2024-03-23T02:52:04;18.80;;;4.60;;
76136;SDS011;68622;53.128;17.966;2024-03-23T02:54:30;13.40;;;3.60;;
76136;SDS011;68622;53.128;17.966;2024-03-23T02:56:57;16.10;;;4.10;;
76136;SDS011;68622;53.128;17.966;2024-03-23T02:59:23;16.70;;;3.90;;
76136;SDS011;68622;53.128;17.966;2024-03-23T03:01:50;18.70;;;5.20;;
76136;SDS011;68622;53.128;17.966;2024-03-23T03:04:16;17.10;;;4.70;;
76136;SDS011;68622;53.128;17.966;2024-03-23T03:06:46;19.00;;;3.60;;
76136;SDS011;68622;53.128;17.966;2024-03-23T03:09:13;13.20;;;4.20;;
76136;SDS011;68622;53.128;17.966;2024-03-23T03:11:39;12.00;;;2.90;;
76136;SDS011;68622;53.128;17.966;2024-03-23T03:14:06;12.60;;;3.90;;
76136;SDS011;68622;53.128;17.966;2024-03-23T03:16:34;15.60;;;4.70;;
76136;SDS011;68622;53.128;17.966;2024-03-23T03:19:00;21.20;;;4.00;;
76136;SDS011;68622;53.128;17.966;2024-03-23T03:21:27;15.80;;;3.60;;
76136;SDS011;68622;53.128;17.966;2024-03-23T03:23:54;14.90;;;3.40;;
76136;SDS011;68622;53.128;17.966;2024-03-23T03:26:22;14.80;;;4.40;;
76136;SDS011;68622;53.128;17.966;2024-03-23T03:28:50;14.80;;;3.80;;
76136;SDS011;68622;53.128;17.966;2024-03-23T03:31:17;17.40;;;4.40;;
76136;SDS011;68622;53.128;17.966;2024-03-23T03:33:44;20.10;;;5.00;;
76136;SDS011;68622;53.128;17.966;2024-03-23T03:36:11;26.30;;;5.80;;
76136;SDS011;68622;53.128;17.966;2024-03-23T03:38:37;18.20;;;4.80;;
76136;SDS011;68622;53.128;17.966;2024-03-23T03:41:06;14.10;;;4.10;;
76136;SDS011;68622;53.128;17.966;2024-03-23T03:43:33;17.80;;;5.10;;
76136;SDS011;68622;53.128;17.966;2024-03-23T03:46:00;14.10;;;4.80;;
76136;SDS011;68622;53.128;17.966;2024-03-23T03:48:28;19.60;;;6.10;;
76136;SDS011;68622;53.128;17.966;2024-03-23T03:50:55;27.00;;;5.80;;
76136;SDS011;68622;53.128;17.966;2024-03-23T03:53:21;14.80;;;4.50;;
76136;SDS011;68622;53.128;17.966;2024-03-23T03:55:48;14.60;;;4.70;;
76136;SDS011;68622;53.128;17.966;2024-03-23T03:58:14;18.00;;;5.70;;
76136;SDS011;68622;53.128;17.966;2024-03-23T04:00:41;19.30;;;4.80;;
76136;SDS011;68622;53.128;17.966;2024-03-23T04:03:08;21.60;;;6.70;;
76136;SDS011;68622;53.128;17.966;2024-03-23T04:05:34;20.50;;;6.30;;
76136;SDS011;68622;53.128;17.966;2024-03-23T04:08:01;16.00;;;5.00;;
76136;SDS011;68622;53.128;17.966;2024-03-23T04:10:27;18.40;;;6.30;;
76136;SDS011;68622;53.128;17.966;2024-03-23T04:12:54;16.70;;;5.60;;
76136;SDS011;68622;53.128;17.966;2024-03-23T04:15:20;19.30;;;6.20;;
76136;SDS011;68622;53.128;17.966;2024-03-23T04:17:46;19.40;;;5.70;;
76136;SDS011;68622;53.128;17.966;2024-03-23T04:20:13;20.50;;;6.10;;
76136;SDS011;68622;53.128;17.966;2024-03-23T04:22:43;17.30;;;5.50;;
76136;SDS011;68622;53.128;17.966;2024-03-23T04:25:10;21.40;;;5.40;;
76136;SDS011;68622;53.128;17.966;2024-03-23T04:27:37;18.80;;;5.80;;
76136;SDS011;68622;53.128;17.966;2024-03-23T04:30:03;15.80;;;5.20;;
76136;SDS011;68622;53.128;17.966;2024-03-23T04:32:36;16.60;;;5.80;;
76136;SDS011;68622;53.128;17.966;2024-03-23T04:35:04;20.70;;;5.80;;
76136;SDS011;68622;53.128;17.966;2024-03-23T04:37:36;20.50;;;6.00;;
76136;SDS011;68622;53.128;17.966;2024-03-23T04:40:03;19.90;;;5.20;;
76136;SDS011;68622;53.128;17.966;2024-03-23T04:42:30;17.20;;;5.20;;
76136;SDS011;68622;53.128;17.966;2024-03-23T04:44:57;18.90;;;4.30;;
76136;SDS011;68622;53.128;17.966;2024-03-23T04:47:23;15.40;;;5.10;;
76136;SDS011;68622;53.128;17.966;2024-03-23T04:49:50;20.20;;;5.60;;
76136;SDS011;68622;53.128;17.966;2024-03-23T04:52:17;19.60;;;4.80;;
76136;SDS011;68622;53.128;17.966;2024-03-23T04:54:44;22.70;;;4.60;;
76136;SDS011;68622;53.128;17.966;2024-03-23T04:57:11;17.30;;;4.70;;
76136;SDS011;68622;53.128;17.966;2024-03-23T04:59:38;18.40;;;4.80;;
76136;SDS011;68622;53.128;17.966;2024-03-23T05:02:04;17.30;;;4.80;;
76136;SDS011;68622;53.128;17.966;2024-03-23T05:04:31;17.10;;;3.70;;
76136;SDS011;68622;53.128;17.966;2024-03-23T05:06:58;17.10;;;4.10;;
76136;SDS011;68622;53.128;17.966;2024-03-23T05:09:25;16.70;;;3.50;;
76136;SDS011;68622;53.128;17.966;2024-03-23T05:11:56;19.70;;;3.80;;
76136;SDS011;68622;53.128;17.966;2024-03-23T05:14:24;14.20;;;3.50;;
76136;SDS011;68622;53.128;17.966;2024-03-23T05:16:51;15.60;;;3.60;;
76136;SDS011;68622;53.128;17.966;2024-03-23T05:19:18;19.00;;;4.10;;
76136;SDS011;68622;53.128;17.966;2024-03-23T05:21:44;12.10;;;3.00;;
76136;SDS011;68622;53.128;17.966;2024-03-23T05:24:12;21.20;;;4.80;;
76136;SDS011;68622;53.128;17.966;2024-03-23T05:26:38;16.50;;;3.20;;
76136;SDS011;68622;53.128;17.966;2024-03-23T05:29:05;19.40;;;3.00;;
76136;SDS011;68622;53.128;17.966;2024-03-23T05:31:33;14.60;;;4.20;;
76136;SDS011;68622;53.128;17.966;2024-03-23T05:33:59;16.00;;;3.70;;
76136;SDS011;68622;53.128;17.966;2024-03-23T05:36:26;13.80;;;3.80;;
76136;SDS011;68622;53.128;17.966;2024-03-23T05:38:52;15.90;;;3.50;;
76136;SDS011;68622;53.128;17.966;2024-03-23T05:41:19;15.50;;;4.20;;
76136;SDS011;68622;53.128;17.966;2024-03-23T05:43:45;15.80;;;4.30;;
76136;SDS011;68622;53.128;17.966;2024-03-23T05:46:12;16.40;;;3.90;;
76136;SDS011;68622;53.128;17.966;2024-03-23T05:48:38;15.80;;;3.00;;
76136;SDS011;68622;53.128;17.966;2024-03-23T05:51:04;15.40;;;3.60;;
76136;SDS011;68622;53.128;17.966;2024-03-23T05:53:31;15.80;;;3.90;;
76136;SDS011;68622;53.128;17.966;2024-03-23T05:56:02;16.00;;;3.80;;
76136;SDS011;68622;53.128;17.966;2024-03-23T05:58:33;13.80;;;2.90;;
76136;SDS011;68622;53.128;17.966;2024-03-23T06:01:00;16.40;;;3.80;;
76136;SDS011;68622;53.128;17.966;2024-03-23T06:03:28;18.80;;;5.60;;
76136;SDS011;68622;53.128;17.966;2024-03-23T06:05:55;18.90;;;5.40;;
76136;SDS011;68622;53.128;17.966;2024-03-23T06:08:22;16.60;;;4.10;;
76136;SDS011;68622;53.128;17.966;2024-03-23T06:10:50;17.80;;;4.20;;
76136;SDS011;68622;53.128;17.966;2024-03-23T06:13:17;17.30;;;4.40;;
76136;SDS011;68622;53.128;17.966;2024-03-23T06:15:44;20.00;;;5.10;;
76136;SDS011;68622;53.128;17.966;2024-03-23T06:18:12;15.00;;;5.30;;
76136;SDS011;68622;53.128;17.966;2024-03-23T06:20:39;17.20;;;5.50;;
76136;SDS011;68622;53.128;17.966;2024-03-23T06:23:06;20.60;;;5.50;;
76136;SDS011;68622;53.128;17.966;2024-03-23T06:25:32;18.10;;;5.20;;
76136;SDS011;68622;53.128;17.966;2024-03-23T06:28:00;20.60;;;5.20;;
76136;SDS011;68622;53.128;17.966;2024-03-23T06:30:29;17.00;;;5.30;;
76136;SDS011;68622;53.128;17.966;2024-03-23T06:32:55;17.00;;;5.60;;
76136;SDS011;68622;53.128;17.966;2024-03-23T06:35:22;13.20;;;5.50;;
76136;SDS011;68622;53.128;17.966;2024-03-23T06:37:48;15.30;;;5.20;;
76136;SDS011;68622;53.128;17.966;2024-03-23T06:40:15;22.80;;;5.30;;
76136;SDS011;68622;53.128;17.966;2024-03-23T06:42:42;17.80;;;5.40;;
76136;SDS011;68622;53.128;17.966;2024-03-23T06:45:09;17.20;;;5.60;;
76136;SDS011;68622;53.128;17.966;2024-03-23T06:47:36;15.20;;;4.70;;
76136;SDS011;68622;53.128;17.966;2024-03-23T06:50:03;18.20;;;5.40;;
76136;SDS011;68622;53.128;17.966;2024-03-23T06:52:30;17.60;;;5.20;;
76136;SDS011;68622;53.128;17.966;2024-03-23T06:54:57;18.20;;;5.30;;
76136;SDS011;68622;53.128;17.966;2024-03-23T06:57:24;18.90;;;5.70;;
76136;SDS011;68622;53.128;17.966;2024-03-23T06:59:50;19.40;;;5.60;;
76136;SDS011;68622;53.128;17.966;2024-03-23T07:02:17;18.10;;;6.20;;
76136;SDS011;68622;53.128;17.966;2024-03-23T07:04:43;18.60;;;7.10;;
76136;SDS011;68622;53.128;17.966;2024-03-23T07:07:10;22.20;;;6.60;;
76136;SDS011;68622;53.128;17.966;2024-03-23T07:09:36;18.80;;;6.20;;
76136;SDS011;68622;53.128;17.966;2024-03-23T07:12:04;17.30;;;5.90;;
76136;SDS011;68622;53.128;17.966;2024-03-23T07:14:30;27.70;;;7.10;;
76136;SDS011;68622;53.128;17.966;2024-03-23T07:16:57;24.30;;;8.20;;
76136;SDS011;68622;53.128;17.966;2024-03-23T07:19:24;20.90;;;6.40;;
76136;SDS011;68622;53.128;17.966;2024-03-23T07:21:50;20.40;;;6.20;;
76136;SDS011;68622;53.128;17.966;2024-03-23T07:24:17;21.90;;;6.80;;
76136;SDS011;68622;53.128;17.966;2024-03-23T07:26:44;19.30;;;7.40;;
76136;SDS011;68622;53.128;17.966;2024-03-23T07:29:11;20.60;;;6.10;;
76136;SDS011;68622;53.128;17.966;2024-03-23T07:31:38;19.00;;;5.60;;
76136;SDS011;68622;53.128;17.966;2024-03-23T07:34:05;16.10;;;5.20;;
76136;SDS011;68622;53.128;17.966;2024-03-23T07:36:32;20.40;;;5.60;;
76136;SDS011;68622;53.128;17.966;2024-03-23T07:38:58;21.90;;;6.20;;
76136;SDS011;68622;53.128;17.966;2024-03-23T07:41:25;16.90;;;6.00;;
76136;SDS011;68622;53.128;17.966;2024-03-23T07:43:53;22.00;;;6.30;;
76136;SDS011;68622;53.128;17.966;2024-03-23T07:46:20;21.60;;;6.50;;
76136;SDS011;68622;53.128;17.966;2024-03-23T07:48:47;21.70;;;7.00;;
76136;SDS011;68622;53.128;17.966;2024-03-23T07:51:17;23.10;;;6.80;;
76136;SDS011;68622;53.128;17.966;2024-03-23T07:53:45;23.90;;;6.80;;
76136;SDS011;68622;53.128;17.966;2024-03-23T07:56:19;21.40;;;5.70;;
76136;SDS011;68622;53.128;17.966;2024-03-23T07:58:46;24.90;;;6.60;;
76136;SDS011;68622;53.128;17.966;2024-03-23T08:01:15;21.40;;;6.10;;
76136;SDS011;68622;53.128;17.966;2024-03-23T08:03:43;24.60;;;7.40;;
76136;SDS011;68622;53.128;17.966;2024-03-23T08:06:15;18.40;;;6.40;;
76136;SDS011;68622;53.128;17.966;2024-03-23T08:08:45;17.90;;;5.90;;
76136;SDS011;68622;53.128;17.966;2024-03-23T08:11:13;15.20;;;5.20;;
76136;SDS011;68622;53.128;17.966;2024-03-23T08:13:40;25.10;;;5.50;;
76136;SDS011;68622;53.128;17.966;2024-03-23T08:16:09;19.60;;;5.60;;
76136;SDS011;68622;53.128;17.966;2024-03-23T08:18:35;15.80;;;4.50;;
76136;SDS011;68622;53.128;17.966;2024-03-23T08:21:03;13.30;;;4.60;;
76136;SDS011;68622;53.128;17.966;2024-03-23T08:23:32;15.90;;;4.20;;
76136;SDS011;68622;53.128;17.966;2024-03-23T08:26:03;14.70;;;4.00;;
76136;SDS011;68622;53.128;17.966;2024-03-23T08:28:31;17.70;;;3.90;;
76136;SDS011;68622;53.128;17.966;2024-03-23T08:31:00;19.10;;;4.90;;
76136;SDS011;68622;53.128;17.966;2024-03-23T08:33:28;14.70;;;3.20;;
76136;SDS011;68622;53.128;17.966;2024-03-23T08:35:57;15.50;;;3.90;;
76136;SDS011;68622;53.128;17.966;2024-03-23T08:38:25;16.60;;;2.70;;
76136;SDS011;68622;53.128;17.966;2024-03-23T08:40:56;11.30;;;2.80;;
76136;SDS011;68622;53.128;17.966;2024-03-23T08:43:34;8.20;;;2.00;;
76136;SDS011;68622;53.128;17.966;2024-03-23T08:46:03;13.00;;;2.70;;
76136;SDS011;68622;53.128;17.966;2024-03-23T08:48:42;12.20;;;2.30;;
76136;SDS011;68622;53.128;17.966;2024-03-23T08:51:15;15.10;;;3.60;;
76136;SDS011;68622;53.128;17.966;2024-03-23T08:53:43;19.40;;;2.50;;
76136;SDS011;68622;53.128;17.966;2024-03-23T08:56:10;13.30;;;2.30;;
76136;SDS011;68622;53.128;17.966;2024-03-23T08:58:37;11.70;;;2.40;;
76136;SDS011;68622;53.128;17.966;2024-03-23T09:01:06;12.70;;;2.20;;
76136;SDS011;68622;53.128;17.966;2024-03-23T09:03:39;12.20;;;2.30;;
76136;SDS011;68622;53.128;17.966;2024-03-23T09:06:06;8.90;;;2.20;;
76136;SDS011;68622;53.128;17.966;2024-03-23T09:08:34;9.40;;;2.00;;
76136;SDS011;68622;53.128;17.966;2024-03-23T09:11:09;8.50;;;2.00;;
76136;SDS011;68622;53.128;17.966;2024-03-23T09:13:37;13.00;;;2.90;;
76136;SDS011;68622;53.128;17.966;2024-03-23T09:16:05;11.10;;;3.00;;
76136;SDS011;68622;53.128;17.966;2024-03-23T09:18:32;11.00;;;2.10;;
76136;SDS011;68622;53.128;17.966;2024-03-23T09:21:02;9.40;;;2.10;;
76136;SDS011;68622;53.128;17.966;2024-03-23T09:23:29;10.30;;;2.00;;
76136;SDS011;68622;53.128;17.966;2024-03-23T09:25:56;7.00;;;1.60;;
76136;SDS011;68622;53.128;17.966;2024-03-23T09:28:22;7.90;;;1.50;;
76136;SDS011;68622;53.128;17.966;2024-03-23T09:30:49;8.60;;;1.40;;
76136;SDS011;68622;53.128;17.966;2024-03-23T09:33:15;8.30;;;1.90;;
76136;SDS011;68622;53.128;17.966;2024-03-23T09:35:43;5.20;;;1.20;;
76136;SDS011;68622;53.128;17.966;2024-03-23T09:38:13;6.80;;;1.30;;
76136;SDS011;68622;53.128;17.966;2024-03-23T09:40:40;10.00;;;1.50;;
76136;SDS011;68622;53.128;17.966;2024-03-23T09:43:08;8.80;;;2.20;;
76136;SDS011;68622;53.128;17.966;2024-03-23T09:45:36;10.40;;;1.90;;
76136;SDS011;68622;53.128;17.966;2024-03-23T09:48:05;10.50;;;1.50;;
76136;SDS011;68622;53.128;17.966;2024-03-23T09:50:33;7.70;;;1.60;;
76136;SDS011;68622;53.128;17.966;2024-03-23T09:52:59;5.80;;;1.40;;
76136;SDS011;68622;53.128;17.966;2024-03-23T09:55:27;7.20;;;1.40;;
76136;SDS011;68622;53.128;17.966;2024-03-23T09:57:53;7.60;;;1.50;;
76136;SDS011;68622;53.128;17.966;2024-03-23T10:00:20;8.00;;;1.60;;
76136;SDS011;68622;53.128;17.966;2024-03-23T10:02:46;7.10;;;1.80;;
76136;SDS011;68622;53.128;17.966;2024-03-23T10:05:20;10.70;;;2.10;;
76136;SDS011;68622;53.128;17.966;2024-03-23T10:07:51;6.70;;;1.50;;
76136;SDS011;68622;53.128;17.966;2024-03-23T10:10:17;6.80;;;1.80;;
76136;SDS011;68622;53.128;17.966;2024-03-23T10:12:45;8.70;;;1.20;;
76136;SDS011;68622;53.128;17.966;2024-03-23T10:15:20;5.50;;;1.60;;
76136;SDS011;68622;53.128;17.966;2024-03-23T10:17:48;4.50;;;1.00;;
76136;SDS011;68622;53.128;17.966;2024-03-23T10:20:21;6.80;;;1.30;;
76136;SDS011;68622;53.128;17.966;2024-03-23T10:22:49;5.10;;;1.20;;
76136;SDS011;68622;53.128;17.966;2024-03-23T10:25:18;5.70;;;1.50;;
76136;SDS011;68622;53.128;17.966;2024-03-23T10:27:58;8.50;;;1.50;;
76136;SDS011;68622;53.128;17.966;2024-03-23T10:30:26;4.90;;;1.00;;
76136;SDS011;68622;53.128;17.966;2024-03-23T10:33:06;4.00;;;0.80;;
76136;SDS011;68622;53.128;17.966;2024-03-23T10:35:37;4.40;;;0.60;;
76136;SDS011;68622;53.128;17.966;2024-03-23T10:38:04;4.20;;;0.50;;
76136;SDS011;68622;53.128;17.966;2024-03-23T10:40:36;4.30;;;1.00;;
76136;SDS011;68622;53.128;17.966;2024-03-23T10:43:03;4.60;;;0.70;;
76136;SDS011;68622;53.128;17.966;2024-03-23T10:45:31;3.50;;;0.60;;
76136;SDS011;68622;53.128;17.966;2024-03-23T10:47:58;7.70;;;0.80;;
76136;SDS011;68622;53.128;17.966;2024-03-23T10:50:24;5.50;;;0.90;;
76136;SDS011;68622;53.128;17.966;2024-03-23T10:52:52;5.70;;;0.70;;
76136;SDS011;68622;53.128;17.966;2024-03-23T10:55:21;4.30;;;0.70;;
76136;SDS011;68622;53.128;17.966;2024-03-23T10:57:56;6.70;;;0.90;;
76136;SDS011;68622;53.128;17.966;2024-03-23T11:00:26;5.90;;;1.00;;
76136;SDS011;68622;53.128;17.966;2024-03-23T11:02:52;5.40;;;1.20;;
76136;SDS011;68622;53.128;17.966;2024-03-23T11:05:28;6.60;;;0.90;;
76136;SDS011;68622;53.128;17.966;2024-03-23T11:07:56;6.80;;;1.30;;
76136;SDS011;68622;53.128;17.966;2024-03-23T11:10:32;6.10;;;1.10;;
76136;SDS011;68622;53.128;17.966;2024-03-23T11:15:49;8.30;;;1.40;;
76136;SDS011;68622;53.128;17.966;2024-03-23T11:18:22;7.60;;;1.60;;
76136;SDS011;68622;53.128;17.966;2024-03-23T11:20:48;5.60;;;0.90;;
76136;SDS011;68622;53.128;17.966;2024-03-23T11:23:27;9.50;;;1.50;;
76136;SDS011;68622;53.128;17.966;2024-03-23T11:25:54;10.40;;;1.70;;
76136;SDS011;68622;53.128;17.966;2024-03-23T11:28:21;9.90;;;2.20;;
76136;SDS011;68622;53.128;17.966;2024-03-23T11:30:48;8.50;;;1.90;;
76136;SDS011;68622;53.128;17.966;2024-03-23T11:33:14;8.80;;;3.40;;
76136;SDS011;68622;53.128;17.966;2024-03-23T11:35:41;8.90;;;2.20;;
76136;SDS011;68622;53.128;17.966;2024-03-23T11:38:09;10.40;;;2.20;;
76136;SDS011;68622;53.128;17.966;2024-03-23T11:40:43;9.40;;;2.90;;
76136;SDS011;68622;53.128;17.966;2024-03-23T11:48:12;11.20;;;2.70;;
76136;SDS011;68622;53.128;17.966;2024-03-23T11:50:41;14.00;;;2.50;;
76136;SDS011;68622;53.128;17.966;2024-03-23T11:53:15;10.70;;;2.00;;
76136;SDS011;68622;53.128;17.966;2024-03-23T11:55:44;10.80;;;2.70;;
76136;SDS011;68622;53.128;17.966;2024-03-23T11:58:14;7.70;;;2.10;;
76136;SDS011;68622;53.128;17.966;2024-03-23T12:00:42;9.20;;;2.40;;
76136;SDS011;68622;53.128;17.966;2024-03-23T12:03:16;9.00;;;2.40;;
76136;SDS011;68622;53.128;17.966;2024-03-23T12:05:51;13.10;;;3.10;;
76136;SDS011;68622;53.128;17.966;2024-03-23T12:08:20;10.50;;;4.20;;
76136;SDS011;68622;53.128;17.966;2024-03-23T12:10:51;12.10;;;3.50;;
76136;SDS011;68622;53.128;17.966;2024-03-23T12:13:20;12.10;;;3.80;;
76136;SDS011;68622;53.128;17.966;2024-03-23T12:15:49;14.60;;;4.40;;
76136;SDS011;68622;53.128;17.966;2024-03-23T12:18:17;14.30;;;4.80;;
76136;SDS011;68622;53.128;17.966;2024-03-23T12:20:49;12.10;;;3.60;;
76136;SDS011;68622;53.128;17.966;2024-03-23T12:23:16;13.90;;;5.00;;
76136;SDS011;68622;53.128;17.966;2024-03-23T12:25:43;15.30;;;5.10;;
76136;SDS011;68622;53.128;17.966;2024-03-23T12:28:09;12.30;;;4.00;;
76136;SDS011;68622;53.128;17.966;2024-03-23T12:30:38;12.50;;;3.20;;
76136;SDS011;68622;53.128;17.966;2024-03-23T12:33:07;11.60;;;3.70;;
76136;SDS011;68622;53.128;17.966;2024-03-23T12:35:34;11.10;;;4.00;;
76136;SDS011;68622;53.128;17.966;2024-03-23T12:38:00;11.80;;;3.50;;
76136;SDS011;68622;53.128;17.966;2024-03-23T12:40:27;11.50;;;2.90;;
76136;SDS011;68622;53.128;17.966;2024-03-23T12:42:54;11.40;;;3.40;;
76136;SDS011;68622;53.128;17.966;2024-03-23T12:45:22;10.20;;;3.80;;
76136;SDS011;68622;53.128;17.966;2024-03-23T12:47:49;12.20;;;3.30;;
76136;SDS011;68622;53.128;17.966;2024-03-23T12:50:16;7.30;;;2.40;;
76136;SDS011;68622;53.128;17.966;2024-03-23T12:52:43;9.90;;;2.60;;
76136;SDS011;68622;53.128;17.966;2024-03-23T12:55:10;10.80;;;3.10;;
76136;SDS011;68622;53.128;17.966;2024-03-23T12:57:37;10.60;;;3.40;;
76136;SDS011;68622;53.128;17.966;2024-03-23T13:00:04;10.40;;;3.10;;
76136;SDS011;68622;53.128;17.966;2024-03-23T13:02:32;11.40;;;3.80;;
76136;SDS011;68622;53.128;17.966;2024-03-23T13:05:01;11.40;;;3.20;;
76136;SDS011;68622;53.128;17.966;2024-03-23T13:07:27;9.70;;;4.10;;
76136;SDS011;68622;53.128;17.966;2024-03-23T13:09:54;12.30;;;2.80;;
76136;SDS011;68622;53.128;17.966;2024-03-23T13:12:20;9.40;;;2.60;;
76136;SDS011;68622;53.128;17.966;2024-03-23T13:14:46;8.50;;;2.40;;
76136;SDS011;68622;53.128;17.966;2024-03-23T13:17:13;7.80;;;2.10;;
76136;SDS011;68622;53.128;17.966;2024-03-23T13:19:41;6.90;;;2.00;;
76136;SDS011;68622;53.128;17.966;2024-03-23T13:22:07;9.30;;;2.00;;
76136;SDS011;68622;53.128;17.966;2024-03-23T13:24:37;6.50;;;1.70;;
76136;SDS011;68622;53.128;17.966;2024-03-23T13:27:04;5.80;;;1.50;;
76136;SDS011;68622;53.128;17.966;2024-03-23T13:29:34;7.80;;;2.00;;
76136;SDS011;68622;53.128;17.966;2024-03-23T13:32:01;9.00;;;1.80;;
76136;SDS011;68622;53.128;17.966;2024-03-23T13:34:28;6.90;;;1.50;;
76136;SDS011;68622;53.128;17.966;2024-03-23T13:36:55;3.40;;;0.90;;
76136;SDS011;68622;53.128;17.966;2024-03-23T13:39:25;7.50;;;1.60;;
76136;SDS011;68622;53.128;17.966;2024-03-23T13:41:54;8.10;;;1.80;;
76136;SDS011;68622;53.128;17.966;2024-03-23T13:44:23;5.00;;;1.20;;
76136;SDS011;68622;53.128;17.966;2024-03-23T13:46:50;7.20;;;1.40;;
76136;SDS011;68622;53.128;17.966;2024-03-23T13:49:20;6.80;;;1.90;;
76136;SDS011;68622;53.128;17.966;2024-03-23T13:51:53;6.60;;;1.50;;
76136;SDS011;68622;53.128;17.966;2024-03-23T13:54:21;9.00;;;2.60;;
76136;SDS011;68622;53.128;17.966;2024-03-23T13:56:48;7.00;;;2.60;;
76136;SDS011;68622;53.128;17.966;2024-03-23T13:59:15;10.00;;;2.60;;
76136;SDS011;68622;53.128;17.966;2024-03-23T14:01:42;8.30;;;2.00;;
76136;SDS011;68622;53.128;17.966;2024-03-23T14:04:09;8.00;;;1.90;;
76136;SDS011;68622;53.128;17.966;2024-03-23T14:06:36;9.10;;;2.00;;
76136;SDS011;68622;53.128;17.966;2024-03-23T14:09:02;5.00;;;1.20;;
76136;SDS011;68622;53.128;17.966;2024-03-23T14:11:30;7.50;;;1.50;;
76136;SDS011;68622;53.128;17.966;2024-03-23T14:13:57;6.30;;;1.60;;
76136;SDS011;68622;53.128;17.966;2024-03-23T14:16:23;5.90;;;1.30;;
76136;SDS011;68622;53.128;17.966;2024-03-23T14:18:50;12.30;;;2.80;;
76136;SDS011;68622;53.128;17.966;2024-03-23T14:21:17;7.50;;;1.80;;
76136;SDS011;68622;53.128;17.966;2024-03-23T14:23:44;8.30;;;2.10;;
76136;SDS011;68622;53.128;17.966;2024-03-23T14:26:10;8.40;;;1.80;;
76136;SDS011;68622;53.128;17.966;2024-03-23T14:28:37;6.90;;;1.90;;
76136;SDS011;68622;53.128;17.966;2024-03-23T14:31:03;9.10;;;1.90;;
76136;SDS011;68622;53.128;17.966;2024-03-23T14:33:37;7.50;;;1.90;;
76136;SDS011;68622;53.128;17.966;2024-03-23T14:36:04;9.40;;;2.40;;
76136;SDS011;68622;53.128;17.966;2024-03-23T14:38:31;6.90;;;1.90;;
76136;SDS011;68622;53.128;17.966;2024-03-23T14:40:59;9.50;;;2.70;;
76136;SDS011;68622;53.128;17.966;2024-03-23T14:43:27;9.30;;;2.20;;
76136;SDS011;68622;53.128;17.966;2024-03-23T14:46:10;6.40;;;1.50;;
76136;SDS011;68622;53.128;17.966;2024-03-23T14:48:37;8.10;;;1.20;;
76136;SDS011;68622;53.128;17.966;2024-03-23T14:51:04;6.10;;;1.30;;
76136;SDS011;68622;53.128;17.966;2024-03-23T14:53:32;4.10;;;1.70;;
76136;SDS011;68622;53.128;17.966;2024-03-23T14:55:59;4.80;;;1.00;;
76136;SDS011;68622;53.128;17.966;2024-03-23T14:58:27;5.30;;;1.00;;
76136;SDS011;68622;53.128;17.966;2024-03-23T15:01:01;7.70;;;1.80;;
76136;SDS011;68622;53.128;17.966;2024-03-23T15:03:28;5.30;;;1.30;;
76136;SDS011;68622;53.128;17.966;2024-03-23T15:05:55;3.80;;;1.20;;
76136;SDS011;68622;53.128;17.966;2024-03-23T15:08:24;6.20;;;1.00;;
76136;SDS011;68622;53.128;17.966;2024-03-23T15:10:50;4.40;;;0.90;;
76136;SDS011;68622;53.128;17.966;2024-03-23T15:13:17;5.40;;;1.00;;
76136;SDS011;68622;53.128;17.966;2024-03-23T15:15:44;7.40;;;1.50;;
76136;SDS011;68622;53.128;17.966;2024-03-23T15:18:11;6.00;;;1.50;;
76136;SDS011;68622;53.128;17.966;2024-03-23T15:20:39;7.10;;;1.70;;
76136;SDS011;68622;53.128;17.966;2024-03-23T15:23:05;6.40;;;1.70;;
76136;SDS011;68622;53.128;17.966;2024-03-23T15:25:32;8.30;;;1.70;;
76136;SDS011;68622;53.128;17.966;2024-03-23T15:27:58;8.00;;;2.40;;
76136;SDS011;68622;53.128;17.966;2024-03-23T15:30:26;7.10;;;1.90;;